Time;durP1;ratioP1;P1;durP2;ratioP2;P2;SDS_P1;SDS_P2;PMS_P1;PMS_P2;Temp;Humidity;BMP_temperature;BMP_pressure;BME280_temperature;BME280_humidity;BME280_pressure;Samples;Min_cycle;Max_cycle;Signal;HPM_P1;HPM_P2
2023/07/23 00:00:16;;;;;;;11.05;5.93;;;14.70;99.90;;;;;;5073102;28;20102;-79
2023/07/23 00:03:02;;;;;;;14.65;7.07;;;14.80;99.90;;;;;;5074973;28;20052;-79
2023/07/23 00:05:50;;;;;;;12.52;8.13;;;14.80;99.90;;;;;;5073637;28;20109;-79
2023/07/23 00:08:36;;;;;;;12.60;7.90;;;14.80;99.90;;;;;;5058314;28;20140;-79
2023/07/23 00:11:22;;;;;;;13.23;7.80;;;14.80;99.90;;;;;;5071898;28;20396;-80
2023/07/23 00:14:08;;;;;;;13.50;8.75;;;14.80;99.90;;;;;;5072290;28;20060;-80
2023/07/23 00:16:55;;;;;;;11.00;7.75;;;14.80;99.90;;;;;;5072518;28;20087;-81
2023/07/23 00:19:41;;;;;;;14.73;8.48;;;14.70;99.90;;;;;;5074530;28;20134;-81
2023/07/23 00:22:27;;;;;;;15.55;8.20;;;14.80;99.90;;;;;;5089233;28;20055;-83
2023/07/23 00:25:13;;;;;;;19.70;9.38;;;14.80;99.90;;;;;;5090205;28;20044;-83
2023/07/23 00:27:59;;;;;;;15.25;7.45;;;14.80;99.90;;;;;;5070419;28;20056;-80
2023/07/23 00:30:45;;;;;;;13.05;7.80;;;14.80;99.90;;;;;;5088962;28;20090;-79
2023/07/23 00:33:31;;;;;;;13.07;7.70;;;14.80;99.90;;;;;;5072643;28;20044;-80
2023/07/23 00:36:17;;;;;;;13.77;7.90;;;14.80;99.90;;;;;;5090261;28;20048;-82
2023/07/23 00:39:05;;;;;;;15.52;8.18;;;14.80;99.90;;;;;;5090443;28;20052;-81
2023/07/23 00:41:51;;;;;;;16.25;8.30;;;14.70;99.90;;;;;;5071325;28;20052;-78
2023/07/23 00:44:37;;;;;;;13.85;7.88;;;14.70;99.90;;;;;;5088967;28;20075;-83
2023/07/23 00:47:23;;;;;;;11.65;7.53;;;14.70;99.90;;;;;;5089257;28;20052;-82
2023/07/23 00:50:12;;;;;;;13.35;7.20;;;14.70;99.90;;;;;;5072287;28;20531;-84
2023/07/23 00:52:58;;;;;;;13.52;8.30;;;14.70;99.90;;;;;;5090074;28;20102;-84
2023/07/23 00:55:45;;;;;;;16.23;8.70;;;14.70;99.90;;;;;;5089425;28;20043;-81
2023/07/23 00:58:31;;;;;;;16.52;8.80;;;14.70;99.90;;;;;;5089573;28;20466;-80
2023/07/23 01:01:18;;;;;;;15.25;9.38;;;14.70;99.90;;;;;;5089027;28;20403;-81
2023/07/23 01:04:05;;;;;;;15.25;10.60;;;14.70;99.90;;;;;;5071824;28;20051;-81
2023/07/23 01:06:53;;;;;;;16.08;9.27;;;14.70;99.90;;;;;;5091417;28;20055;-83
2023/07/23 01:09:39;;;;;;;13.63;9.23;;;14.70;99.90;;;;;;5092648;28;20070;-81
2023/07/23 01:12:27;;;;;;;15.27;9.45;;;14.70;99.90;;;;;;5074554;28;20059;-83
2023/07/23 01:15:13;;;;;;;17.98;10.10;;;14.60;99.90;;;;;;5092749;28;20040;-84
2023/07/23 01:18:00;;;;;;;16.80;9.73;;;14.70;99.90;;;;;;5074393;28;20500;-83
2023/07/23 01:20:46;;;;;;;16.15;7.65;;;14.70;99.90;;;;;;5074989;28;20052;-83
2023/07/23 01:23:33;;;;;;;14.68;8.52;;;14.60;99.90;;;;;;5093064;28;20044;-83
2023/07/23 01:26:19;;;;;;;16.25;8.52;;;14.60;99.90;;;;;;5097326;28;20542;-81
2023/07/23 01:29:05;;;;;;;13.75;7.32;;;14.60;99.90;;;;;;5074314;28;20456;-82
2023/07/23 01:31:51;;;;;;;14.60;7.82;;;14.60;99.90;;;;;;5091925;28;20492;-80
2023/07/23 01:34:37;;;;;;;13.35;7.18;;;14.70;99.90;;;;;;5092640;28;20056;-81
2023/07/23 01:37:24;;;;;;;14.90;7.47;;;14.70;99.90;;;;;;5075603;28;20055;-82
2023/07/23 01:40:11;;;;;;;12.95;6.65;;;14.60;99.90;;;;;;5092414;28;20056;-82
2023/07/23 01:42:57;;;;;;;11.77;6.55;;;14.70;99.90;;;;;;5060485;28;20054;-80
2023/07/23 01:45:44;;;;;;;11.10;6.45;;;14.60;99.90;;;;;;5093555;28;20059;-82
2023/07/23 01:48:30;;;;;;;14.70;7.38;;;14.70;99.90;;;;;;5074976;28;20060;-79
2023/07/23 01:51:17;;;;;;;11.05;5.50;;;14.70;99.90;;;;;;5093979;28;20047;-81
2023/07/23 01:54:03;;;;;;;16.42;7.22;;;14.70;99.90;;;;;;5091406;28;20083;-80
2023/07/23 01:56:49;;;;;;;13.50;6.65;;;14.70;99.90;;;;;;5093081;28;20109;-83
2023/07/23 01:59:35;;;;;;;12.55;5.90;;;14.70;99.90;;;;;;5075213;28;20052;-79
2023/07/23 02:02:21;;;;;;;11.70;6.15;;;14.70;99.90;;;;;;5091401;28;20074;-82
2023/07/23 02:05:08;;;;;;;13.30;6.07;;;14.70;99.90;;;;;;5092698;28;20055;-85
2023/07/23 02:07:54;;;;;;;11.15;6.30;;;14.70;99.90;;;;;;5091510;28;20535;-82
2023/07/23 02:10:40;;;;;;;13.30;6.22;;;14.70;99.90;;;;;;5091279;28;20048;-82
2023/07/23 02:13:29;;;;;;;13.20;5.88;;;14.80;99.90;;;;;;5059061;28;20051;-81
2023/07/23 02:16:19;;;;;;;12.05;6.63;;;14.70;99.90;;;;;;5092044;28;20083;-82
2023/07/23 02:19:05;;;;;;;12.43;7.05;;;14.80;99.90;;;;;;5091264;28;20268;-83
2023/07/23 02:21:51;;;;;;;11.73;6.47;;;14.70;99.90;;;;;;5092807;28;20101;-84
2023/07/23 02:24:37;;;;;;;12.60;6.53;;;14.70;99.90;;;;;;5077189;28;20040;-81
2023/07/23 02:27:23;;;;;;;16.33;7.80;;;14.80;99.90;;;;;;5073752;28;20117;-81
2023/07/23 02:30:10;;;;;;;15.90;7.50;;;14.80;99.90;;;;;;5090822;28;20040;-81
2023/07/23 02:32:56;;;;;;;12.88;7.00;;;14.80;99.90;;;;;;5073153;28;20063;-80
2023/07/23 02:35:43;;;;;;;15.80;7.75;;;14.80;99.90;;;;;;5091296;28;20175;-83
2023/07/23 02:38:29;;;;;;;15.73;7.47;;;14.80;99.90;;;;;;5090544;28;20052;-81
2023/07/23 02:41:15;;;;;;;10.95;6.70;;;14.80;99.90;;;;;;5092340;28;20098;-80
2023/07/23 02:44:01;;;;;;;13.80;7.05;;;14.80;99.90;;;;;;5060222;28;20063;-82
2023/07/23 02:46:47;;;;;;;14.18;7.63;;;14.80;99.90;;;;;;5090672;28;20083;-79
2023/07/23 02:49:33;;;;;;;14.43;7.15;;;14.80;99.90;;;;;;5092628;28;20044;-80
2023/07/23 02:52:21;;;;;;;14.55;7.88;;;14.80;99.90;;;;;;5078576;28;20055;-84
2023/07/23 02:55:08;;;;;;;15.45;7.25;;;14.80;99.90;;;;;;5091410;28;20139;-81
2023/07/23 02:57:54;;;;;;;15.75;7.65;;;14.70;99.90;;;;;;5077712;28;20154;-82
2023/07/23 03:00:42;;;;;;;15.68;7.88;;;14.70;99.90;;;;;;5092334;28;20194;-82
2023/07/23 03:03:28;;;;;;;17.13;8.10;;;14.70;99.90;;;;;;5090601;28;20052;-80
2023/07/23 03:06:16;;;;;;;13.38;7.53;;;14.70;99.90;;;;;;5093845;28;20435;-82
2023/07/23 03:09:02;;;;;;;16.83;7.93;;;14.70;99.90;;;;;;5077159;28;20078;-80
2023/07/23 03:11:49;;;;;;;14.38;7.88;;;14.70;99.90;;;;;;5091741;28;20048;-80
2023/07/23 03:14:35;;;;;;;15.40;7.18;;;14.70;99.90;;;;;;5090070;28;20491;-82
2023/07/23 03:17:21;;;;;;;14.43;7.07;;;14.70;99.90;;;;;;5073044;28;20081;-81
2023/07/23 03:20:10;;;;;;;16.17;8.25;;;14.70;99.90;;;;;;5074013;28;20058;-82
2023/07/23 03:22:56;;;;;;;12.85;7.57;;;14.70;99.90;;;;;;5089706;28;20052;-82
2023/07/23 03:25:42;;;;;;;17.00;7.78;;;14.70;99.90;;;;;;5090707;28;20054;-81
2023/07/23 03:28:28;;;;;;;13.48;7.40;;;14.70;99.90;;;;;;5089533;28;20048;-81
2023/07/23 03:31:14;;;;;;;14.80;7.22;;;14.70;99.90;;;;;;5091017;28;20117;-84
2023/07/23 03:34:00;;;;;;;15.27;8.10;;;14.70;99.90;;;;;;5058591;28;20475;-83
2023/07/23 03:36:46;;;;;;;14.60;7.93;;;14.60;99.90;;;;;;5089655;28;20586;-83
2023/07/23 03:39:33;;;;;;;14.63;7.72;;;14.70;99.90;;;;;;5089912;28;20052;-81
2023/07/23 03:42:19;;;;;;;13.98;7.35;;;14.60;99.90;;;;;;5074425;28;20142;-81
2023/07/23 03:45:05;;;;;;;14.50;8.43;;;14.60;99.90;;;;;;5090588;28;20089;-83
2023/07/23 03:47:51;;;;;;;15.07;8.50;;;14.70;99.90;;;;;;5073867;28;20044;-84
2023/07/23 03:50:38;;;;;;;15.00;7.63;;;14.60;99.90;;;;;;5071979;28;20055;-81
2023/07/23 03:53:24;;;;;;;15.63;8.70;;;14.70;99.90;;;;;;5090661;28;20056;-83
2023/07/23 03:56:10;;;;;;;16.50;8.35;;;14.70;99.90;;;;;;5089908;28;20044;-81
2023/07/23 03:58:59;;;;;;;18.05;8.52;;;14.70;99.90;;;;;;5071829;28;20066;-82
2023/07/23 04:01:45;;;;;;;15.88;8.20;;;14.70;99.90;;;;;;5057852;28;20087;-85
2023/07/23 04:04:32;;;;;;;17.85;8.68;;;14.70;99.90;;;;;;5072039;28;20051;-82
2023/07/23 04:07:18;;;;;;;14.40;7.70;;;14.70;99.90;;;;;;5074861;28;20112;-84
2023/07/23 04:10:04;;;;;;;15.13;10.00;;;14.70;99.90;;;;;;5070511;28;20052;-83
2023/07/23 04:12:50;;;;;;;17.92;7.82;;;14.70;99.90;;;;;;5091207;28;20136;-84
2023/07/23 04:15:37;;;;;;;18.55;8.32;;;14.70;99.90;;;;;;5089912;28;20404;-83
2023/07/23 04:18:23;;;;;;;16.83;8.32;;;14.70;99.90;;;;;;5070407;28;20073;-82
2023/07/23 04:21:09;;;;;;;19.30;8.38;;;14.70;99.90;;;;;;5091307;28;20062;-84
2023/07/23 04:23:57;;;;;;;21.02;9.32;;;14.70;99.90;;;;;;5089535;28;20047;-83
2023/07/23 04:26:43;;;;;;;17.05;8.52;;;14.70;99.90;;;;;;5089225;28;20147;-83
2023/07/23 04:29:29;;;;;;;16.27;8.73;;;14.70;99.90;;;;;;5089805;28;20051;-82
2023/07/23 04:32:15;;;;;;;19.27;9.18;;;14.70;99.90;;;;;;5073743;28;20048;-81
2023/07/23 04:35:01;;;;;;;18.95;8.48;;;14.70;99.90;;;;;;5089403;28;20147;-82
2023/07/23 04:37:47;;;;;;;13.27;7.75;;;14.70;99.90;;;;;;5090190;28;20044;-82
2023/07/23 04:40:35;;;;;;;12.30;7.57;;;14.70;99.90;;;;;;5091931;28;20075;-84
2023/07/23 04:43:21;;;;;;;13.27;7.30;;;14.70;99.90;;;;;;5094672;28;20055;-82
2023/07/23 04:46:07;;;;;;;16.17;8.13;;;14.70;99.90;;;;;;5094008;28;20408;-83
2023/07/23 04:48:54;;;;;;;13.88;8.07;;;14.70;99.90;;;;;;5093445;28;20128;-85
2023/07/23 04:51:40;;;;;;;15.63;9.15;;;14.70;99.90;;;;;;5093407;28;20476;-81
2023/07/23 04:54:26;;;;;;;16.63;8.15;;;14.70;99.90;;;;;;5093591;28;20180;-85
2023/07/23 04:57:12;;;;;;;16.48;8.13;;;14.80;99.90;;;;;;5077838;28;20052;-82
2023/07/23 04:59:58;;;;;;;15.27;8.05;;;14.70;99.90;;;;;;5094402;28;20051;-83
2023/07/23 05:02:44;;;;;;;26.58;9.13;;;14.70;99.90;;;;;;5079364;28;20068;-81
2023/07/23 05:05:31;;;;;;;16.92;8.05;;;14.70;99.90;;;;;;5075747;28;20109;-82
2023/07/23 05:08:19;;;;;;;16.38;7.88;;;14.80;99.90;;;;;;5093684;28;20515;-82
2023/07/23 05:11:05;;;;;;;19.23;8.48;;;14.80;99.90;;;;;;5093744;28;20049;-83
2023/07/23 05:13:51;;;;;;;12.93;7.43;;;14.80;99.90;;;;;;5077170;28;20059;-82
2023/07/23 05:16:38;;;;;;;15.02;7.53;;;14.80;99.90;;;;;;5092579;28;20059;-83
2023/07/23 05:19:24;;;;;;;18.35;8.70;;;14.80;99.90;;;;;;5092208;28;20377;-82
2023/07/23 05:22:10;;;;;;;16.80;9.38;;;14.80;99.90;;;;;;5093784;28;20048;-83
2023/07/23 05:24:56;;;;;;;19.55;8.85;;;14.90;99.90;;;;;;5091952;28;20113;-81
2023/07/23 05:27:42;;;;;;;14.75;7.65;;;14.90;99.90;;;;;;5093280;28;20079;-79
2023/07/23 05:30:28;;;;;;;17.27;8.27;;;14.90;99.90;;;;;;5091769;28;20044;-81
2023/07/23 05:33:14;;;;;;;15.35;7.95;;;14.90;99.90;;;;;;5092277;28;20052;-81
2023/07/23 05:36:01;;;;;;;15.35;7.78;;;14.90;99.90;;;;;;5091684;28;20480;-80
2023/07/23 05:38:48;;;;;;;19.23;8.90;;;14.90;99.90;;;;;;5092663;28;20044;-80
2023/07/23 05:41:34;;;;;;;18.42;8.00;;;14.90;99.90;;;;;;5093147;28;20109;-84
2023/07/23 05:44:20;;;;;;;15.70;7.93;;;14.90;99.90;;;;;;5074912;28;20052;-80
2023/07/23 05:47:06;;;;;;;13.70;7.38;;;14.90;99.90;;;;;;5094401;28;20381;-82
2023/07/23 05:49:52;;;;;;;16.27;8.32;;;14.90;99.90;;;;;;5092766;28;20078;-82
2023/07/23 05:52:38;;;;;;;13.75;7.70;;;14.90;99.90;;;;;;5072917;28;20059;-82
2023/07/23 05:55:25;;;;;;;15.38;9.02;;;14.90;99.90;;;;;;5073986;28;20056;-79
2023/07/23 05:58:11;;;;;;;14.75;7.63;;;14.90;99.90;;;;;;5094039;28;20048;-81
2023/07/23 06:00:57;;;;;;;14.32;7.45;;;15.00;99.90;;;;;;5092810;28;20092;-83
2023/07/23 06:03:43;;;;;;;14.55;8.27;;;15.00;99.90;;;;;;5091969;28;20048;-80
2023/07/23 06:06:29;;;;;;;14.00;7.43;;;15.00;99.90;;;;;;5059439;28;20048;-78
2023/07/23 06:09:17;;;;;;;13.75;8.20;;;15.00;99.90;;;;;;5061137;28;20058;-81
2023/07/23 06:12:04;;;;;;;15.55;8.23;;;15.00;99.90;;;;;;5090706;28;20144;-80
2023/07/23 06:14:49;;;;;;;13.80;8.07;;;15.00;99.90;;;;;;5091930;28;20385;-80
2023/07/23 06:17:36;;;;;;;15.23;8.23;;;15.10;99.90;;;;;;5077060;28;20052;-79
2023/07/23 06:20:22;;;;;;;12.88;7.68;;;15.10;99.90;;;;;;5091675;28;20048;-80
2023/07/23 06:23:08;;;;;;;16.33;7.88;;;15.10;99.90;;;;;;5091320;28;20063;-80
2023/07/23 06:25:55;;;;;;;15.20;8.35;;;15.10;99.90;;;;;;5074612;28;20113;-81
2023/07/23 06:28:41;;;;;;;14.30;7.90;;;15.10;99.90;;;;;;5077305;28;20052;-80
2023/07/23 06:31:28;;;;;;;14.57;8.32;;;15.10;99.90;;;;;;5092680;28;20040;-79
2023/07/23 06:34:14;;;;;;;13.55;8.20;;;15.10;99.90;;;;;;5075875;28;20059;-80
2023/07/23 06:37:00;;;;;;;18.50;9.45;;;15.10;99.90;;;;;;5090943;28;20458;-80
2023/07/23 06:39:46;;;;;;;16.83;9.07;;;15.10;99.90;;;;;;5092993;28;20044;-81
2023/07/23 06:42:32;;;;;;;16.08;8.07;;;15.20;99.90;;;;;;5092838;28;20488;-82
2023/07/23 06:45:18;;;;;;;16.27;7.20;;;15.20;99.90;;;;;;5094369;28;20047;-83
2023/07/23 06:48:05;;;;;;;15.35;7.85;;;15.20;99.90;;;;;;5091490;28;20792;-83
2023/07/23 06:50:51;;;;;;;17.67;8.85;;;15.20;99.90;;;;;;5076568;28;20052;-82
2023/07/23 06:53:37;;;;;;;18.58;9.18;;;15.30;99.90;;;;;;5090852;28;20059;-81
2023/07/23 06:56:23;;;;;;;18.30;8.93;;;15.30;99.90;;;;;;5091741;28;20070;-82
2023/07/23 06:59:09;;;;;;;18.83;9.13;;;15.30;99.90;;;;;;5091318;28;20058;-81
2023/07/23 07:01:55;;;;;;;18.73;9.40;;;15.30;99.90;;;;;;5074081;28;20055;-80
2023/07/23 07:04:41;;;;;;;17.08;8.48;;;15.40;99.90;;;;;;5090484;28;20126;-81
2023/07/23 07:07:28;;;;;;;15.35;8.70;;;15.40;99.90;;;;;;5091334;28;20079;-80
2023/07/23 07:10:14;;;;;;;19.75;10.23;;;15.40;99.90;;;;;;5073374;28;20134;-81
2023/07/23 07:13:00;;;;;;;19.92;8.75;;;15.40;99.90;;;;;;5073401;28;20048;-79
2023/07/23 07:15:46;;;;;;;20.70;10.02;;;15.50;99.90;;;;;;5091231;28;20066;-80
2023/07/23 07:18:32;;;;;;;17.35;10.20;;;15.50;99.90;;;;;;5075917;28;20416;-79
2023/07/23 07:21:18;;;;;;;19.00;10.20;;;15.50;99.90;;;;;;5072495;28;20135;-81
2023/07/23 07:24:06;;;;;;;16.90;9.52;;;15.50;99.90;;;;;;5092669;28;20454;-80
2023/07/23 07:26:52;;;;;;;17.75;9.38;;;15.50;99.90;;;;;;5089981;28;20499;-80
2023/07/23 07:29:39;;;;;;;16.38;9.25;;;15.50;99.90;;;;;;5072279;28;20048;-80
2023/07/23 07:32:25;;;;;;;16.63;9.35;;;15.50;99.90;;;;;;5090803;28;20059;-81
2023/07/23 07:35:11;;;;;;;17.58;9.75;;;15.50;99.90;;;;;;5076445;28;20116;-81
2023/07/23 07:37:57;;;;;;;19.00;10.25;;;15.50;99.90;;;;;;5089592;28;20063;-81
2023/07/23 07:40:43;;;;;;;16.15;10.18;;;15.50;99.90;;;;;;5091030;28;20067;-80
2023/07/23 07:43:30;;;;;;;17.17;8.98;;;15.50;99.90;;;;;;5090252;28;20132;-81
2023/07/23 07:46:16;;;;;;;15.88;10.15;;;15.60;99.90;;;;;;5091398;28;20044;-81
2023/07/23 07:49:02;;;;;;;17.85;10.65;;;15.60;99.90;;;;;;5073735;28;20079;-81
2023/07/23 07:51:49;;;;;;;17.00;11.48;;;15.60;99.90;;;;;;5077177;28;20046;-83
2023/07/23 07:54:36;;;;;;;19.77;9.98;;;15.60;99.90;;;;;;5089765;28;20052;-82
2023/07/23 07:57:22;;;;;;;21.08;11.55;;;15.70;99.90;;;;;;5089376;28;20515;-80
2023/07/23 08:00:09;;;;;;;19.33;10.52;;;15.70;99.90;;;;;;5090513;28;20130;-81
2023/07/23 08:02:55;;;;;;;20.25;12.20;;;15.70;99.90;;;;;;5071317;28;20109;-82
2023/07/23 08:05:41;;;;;;;21.13;13.15;;;15.60;99.90;;;;;;5090014;28;20056;-80
2023/07/23 08:08:30;;;;;;;23.80;14.05;;;15.70;99.90;;;;;;5091943;28;20052;-85
2023/07/23 08:11:17;;;;;;;21.80;12.48;;;15.70;99.90;;;;;;5090055;28;20189;-82
2023/07/23 08:14:06;;;;;;;26.60;14.18;;;15.70;99.90;;;;;;5090250;28;20058;-85
2023/07/23 08:16:54;;;;;;;23.00;13.27;;;15.80;99.90;;;;;;5089614;28;20055;-79
2023/07/23 08:19:40;;;;;;;24.35;14.23;;;15.80;99.90;;;;;;5090836;28;20048;-80
2023/07/23 08:22:26;;;;;;;25.08;13.63;;;15.80;99.90;;;;;;5090647;28;20070;-82
2023/07/23 08:25:13;;;;;;;23.63;14.52;;;15.90;99.90;;;;;;5091047;28;20105;-83
2023/07/23 08:28:00;;;;;;;20.95;13.93;;;15.90;99.90;;;;;;5091126;28;20048;-80
2023/07/23 08:30:47;;;;;;;23.35;13.60;;;15.90;99.90;;;;;;5092817;28;20139;-82
2023/07/23 08:33:33;;;;;;;21.50;13.48;;;16.00;99.90;;;;;;5073575;28;20054;-82
2023/07/23 08:36:19;;;;;;;23.45;13.63;;;16.00;99.90;;;;;;5089829;28;20048;-81
2023/07/23 08:39:06;;;;;;;20.85;13.02;;;16.00;99.90;;;;;;5090019;28;20113;-82
2023/07/23 08:42:04;;;;;;;17.63;12.77;;;16.00;99.90;;;;;;5089089;28;20048;-81
2023/07/23 08:45:05;;;;;;;23.20;13.98;;;16.10;99.90;;;;;;5089849;28;20530;-83
2023/07/23 08:48:09;;;;;;;21.40;12.80;;;16.10;99.90;;;;;;5089998;28;20050;-81
2023/07/23 08:50:56;;;;;;;18.50;12.80;;;16.10;99.90;;;;;;5075138;28;20067;-83
2023/07/23 08:53:43;;;;;;;17.75;11.65;;;16.20;99.90;;;;;;5090946;28;20075;-83
2023/07/23 08:56:29;;;;;;;21.08;13.32;;;16.20;99.90;;;;;;5089480;28;20076;-84
2023/07/23 08:59:15;;;;;;;20.92;14.63;;;16.30;99.90;;;;;;5075810;28;20692;-85
2023/07/23 09:02:02;;;;;;;23.08;15.82;;;16.30;99.90;;;;;;5077057;28;20062;-82
2023/07/23 09:04:51;;;;;;;20.73;14.23;;;16.30;99.90;;;;;;5090926;28;20133;-85
2023/07/23 09:07:37;;;;;;;28.50;17.67;;;16.40;99.90;;;;;;5072760;28;20090;-82
2023/07/23 09:10:23;;;;;;;21.17;14.73;;;16.40;99.90;;;;;;5061075;28;20118;-82
2023/07/23 09:13:13;;;;;;;20.38;14.52;;;16.40;99.90;;;;;;5090758;28;20044;-82
2023/07/23 09:16:00;;;;;;;20.02;15.23;;;16.40;99.90;;;;;;5089767;28;20040;-82
2023/07/23 09:18:46;;;;;;;24.33;15.45;;;16.40;99.90;;;;;;5089937;28;20131;-82
2023/07/23 09:21:32;;;;;;;24.88;16.83;;;16.40;99.90;;;;;;5089488;28;20052;-82
2023/07/23 09:24:18;;;;;;;22.15;16.70;;;16.50;99.90;;;;;;5090253;28;20080;-84
2023/07/23 09:27:10;;;;;;;22.45;17.02;;;16.50;99.90;;;;;;5093939;28;20051;-82
2023/07/23 09:29:56;;;;;;;21.33;16.25;;;16.50;99.90;;;;;;5093683;28;20063;-83
2023/07/23 09:32:42;;;;;;;20.40;14.82;;;16.50;99.90;;;;;;5093044;28;20067;-83
2023/07/23 09:35:32;;;;;;;19.88;15.20;;;16.50;99.90;;;;;;5094772;28;20122;-82
2023/07/23 09:38:19;;;;;;;21.42;16.30;;;16.60;99.90;;;;;;5092954;28;20137;-82
2023/07/23 09:41:05;;;;;;;20.15;14.82;;;16.60;99.90;;;;;;5093014;28;20150;-82
2023/07/23 09:43:51;;;;;;;22.17;15.43;;;16.60;99.90;;;;;;5092058;28;20514;-82
2023/07/23 09:46:39;;;;;;;22.73;15.85;;;16.60;99.90;;;;;;5093182;28;20101;-83
2023/07/23 09:49:30;;;;;;;22.10;15.88;;;16.60;99.90;;;;;;5074997;28;20102;-83
2023/07/23 09:52:16;;;;;;;20.88;15.10;;;16.70;99.90;;;;;;5093222;28;20121;-84
2023/07/23 09:55:03;;;;;;;22.88;15.32;;;16.70;99.90;;;;;;5093065;28;20403;-82
2023/07/23 09:57:51;;;;;;;23.08;16.02;;;16.60;99.90;;;;;;5092129;28;20048;-82
2023/07/23 10:00:37;;;;;;;22.20;15.50;;;16.60;99.90;;;;;;5093348;28;20044;-82
2023/07/23 10:03:24;;;;;;;23.98;15.05;;;16.70;99.90;;;;;;5074478;28;20070;-82
2023/07/23 10:06:12;;;;;;;20.02;14.25;;;16.70;99.90;;;;;;5091914;28;20048;-82
2023/07/23 10:09:02;;;;;;;19.70;14.48;;;16.60;99.90;;;;;;5074236;28;20151;-82
2023/07/23 10:11:48;;;;;;;26.05;16.63;;;16.60;99.90;;;;;;5060623;28;20040;-83
2023/07/23 10:14:34;;;;;;;23.70;14.68;;;16.70;99.90;;;;;;5060050;28;20051;-83
2023/07/23 10:17:21;;;;;;;23.88;15.75;;;16.70;99.90;;;;;;5091961;28;20048;-81
2023/07/23 10:20:10;;;;;;;21.40;15.00;;;16.70;99.90;;;;;;5091677;28;20515;-83
2023/07/23 10:22:57;;;;;;;21.45;14.60;;;16.80;99.90;;;;;;5092265;28;20109;-81
2023/07/23 10:25:43;;;;;;;23.48;16.02;;;16.80;99.90;;;;;;5091711;28;20061;-83
2023/07/23 10:28:29;;;;;;;30.45;17.83;;;16.80;99.90;;;;;;5090658;28;20774;-82
2023/07/23 10:31:42;;;;;;;21.35;15.85;;;16.90;99.90;;;;;;5092134;28;20127;-82
2023/07/23 10:34:40;;;;;;;26.25;17.58;;;17.00;99.90;;;;;;5091940;28;20047;-82
2023/07/23 10:37:26;;;;;;;24.90;16.13;;;17.00;99.90;;;;;;5092167;28;20436;-82
2023/07/23 10:40:46;;;;;;;23.45;16.45;;;17.00;99.90;;;;;;5093189;28;20090;-83
2023/07/23 10:43:48;;;;;;;19.90;15.25;;;17.10;99.90;;;;;;5090800;28;20090;-82
2023/07/23 10:46:34;;;;;;;23.50;15.38;;;17.10;99.90;;;;;;5073852;28;20056;-83
2023/07/23 10:49:22;;;;;;;20.83;14.88;;;17.10;99.90;;;;;;5092634;28;20048;-82
2023/07/23 10:52:12;;;;;;;27.23;15.20;;;17.10;99.90;;;;;;5091244;28;20052;-82
2023/07/23 10:55:01;;;;;;;23.42;15.40;;;17.10;99.90;;;;;;5073609;28;20040;-83
2023/07/23 10:57:48;;;;;;;20.40;13.70;;;17.20;99.90;;;;;;5091446;28;20044;-84
2023/07/23 11:00:34;;;;;;;22.33;14.52;;;17.20;99.90;;;;;;5058958;28;20074;-83
2023/07/23 11:03:24;;;;;;;21.95;13.98;;;17.20;99.90;;;;;;5090399;28;20051;-82
2023/07/23 11:06:25;;;;;;;21.60;14.20;;;17.20;99.90;;;;;;5091059;28;20097;-83
2023/07/23 11:09:11;;;;;;;22.55;13.80;;;17.30;99.90;;;;;;5091748;28;20575;-84
2023/07/23 11:12:03;;;;;;;25.33;14.15;;;17.30;99.90;;;;;;5091902;28;20412;-83
2023/07/23 11:14:52;;;;;;;19.90;13.48;;;17.30;99.90;;;;;;5077336;28;20052;-83
2023/07/23 11:17:39;;;;;;;20.65;14.18;;;17.30;99.90;;;;;;5075825;28;20108;-83
2023/07/23 11:20:26;;;;;;;20.30;13.95;;;17.40;99.90;;;;;;5072441;28;20051;-81
2023/07/23 11:23:14;;;;;;;22.63;14.18;;;17.40;99.90;;;;;;5061795;28;20461;-82
2023/07/23 11:26:02;;;;;;;22.63;14.07;;;17.50;99.90;;;;;;5091130;28;20083;-82
2023/07/23 11:28:49;;;;;;;22.55;14.00;;;17.60;99.90;;;;;;5090766;28;20092;-81
2023/07/23 11:31:35;;;;;;;22.95;12.85;;;17.50;99.90;;;;;;5090456;28;20491;-82
2023/07/23 11:34:25;;;;;;;22.48;13.60;;;17.50;99.90;;;;;;5091284;28;20101;-82
2023/07/23 11:37:14;;;;;;;23.52;14.43;;;17.50;99.90;;;;;;5090156;28;20053;-81
2023/07/23 11:40:01;;;;;;;20.70;14.27;;;17.40;99.90;;;;;;5091921;28;20423;-81
2023/07/23 11:42:48;;;;;;;21.10;13.00;;;17.40;99.90;;;;;;5091266;28;20043;-81
2023/07/23 11:45:44;;;;;;;21.50;14.45;;;17.40;99.90;;;;;;5072449;28;20055;-83
2023/07/23 11:48:31;;;;;;;20.23;11.48;;;17.30;99.90;;;;;;5090549;28;20082;-82
2023/07/23 11:51:17;;;;;;;18.38;12.85;;;17.30;99.90;;;;;;5072499;28;20060;-83
2023/07/23 11:54:07;;;;;;;16.95;12.27;;;17.20;99.90;;;;;;5090177;28;20109;-82
2023/07/23 11:56:54;;;;;;;21.17;12.60;;;17.20;99.90;;;;;;5090202;28;20403;-83
2023/07/23 11:59:40;;;;;;;18.00;12.18;;;17.10;99.90;;;;;;5091448;28;20104;-82
2023/07/23 12:02:26;;;;;;;18.65;11.85;;;17.10;99.90;;;;;;5091318;28;20047;-83
2023/07/23 12:05:14;;;;;;;21.63;13.82;;;17.10;99.90;;;;;;5073704;28;20109;-82
2023/07/23 12:08:00;;;;;;;19.42;13.02;;;17.10;99.90;;;;;;5091012;28;20411;-82
2023/07/23 12:10:47;;;;;;;19.83;12.77;;;17.10;99.90;;;;;;5091299;28;20055;-82
2023/07/23 12:13:33;;;;;;;20.42;13.32;;;17.10;99.90;;;;;;5091727;28;20044;-82
2023/07/23 12:16:42;;;;;;;21.33;14.63;;;17.10;99.90;;;;;;5075676;28;20124;-82
2023/07/23 12:19:31;;;;;;;25.55;15.38;;;17.20;99.90;;;;;;5072422;28;20052;-83
2023/07/23 12:22:18;;;;;;;21.38;13.80;;;17.30;99.90;;;;;;5089726;28;20059;-84
2023/07/23 12:25:04;;;;;;;18.77;12.55;;;17.30;99.90;;;;;;5091523;28;20044;-83
2023/07/23 12:27:53;;;;;;;17.90;12.32;;;17.40;99.90;;;;;;5073247;28;20056;-84
2023/07/23 12:30:39;;;;;;;20.83;14.95;;;17.50;99.90;;;;;;5091028;28;20052;-83
2023/07/23 12:33:25;;;;;;;18.63;13.32;;;17.50;99.90;;;;;;5073108;28;20051;-82
2023/07/23 12:36:11;;;;;;;21.17;13.77;;;17.60;99.90;;;;;;5074565;28;20056;-83
2023/07/23 12:38:57;;;;;;;20.42;14.10;;;17.60;99.90;;;;;;5089591;28;20047;-82
2023/07/23 12:41:43;;;;;;;21.52;14.18;;;17.70;99.90;;;;;;5089775;28;20044;-82
2023/07/23 12:44:32;;;;;;;19.85;14.38;;;17.80;99.90;;;;;;5072111;28;20048;-82
2023/07/23 12:47:18;;;;;;;18.45;13.43;;;18.00;99.90;;;;;;5089554;28;20136;-83
2023/07/23 12:50:05;;;;;;;19.85;13.75;;;18.10;99.90;;;;;;5058594;28;20058;-83
2023/07/23 12:52:52;;;;;;;16.35;12.95;;;18.40;99.90;;;;;;5091149;28;20105;-83
2023/07/23 12:55:38;;;;;;;18.05;12.98;;;18.50;99.90;;;;;;5059269;28;20505;-84
2023/07/23 12:58:24;;;;;;;16.60;12.40;;;18.50;99.90;;;;;;5073001;28;20483;-82
2023/07/23 13:01:13;;;;;;;17.63;12.43;;;18.50;99.90;;;;;;5091793;28;20048;-83
2023/07/23 13:03:59;;;;;;;15.10;11.52;;;18.70;99.90;;;;;;5094339;28;20047;-82
2023/07/23 13:06:46;;;;;;;14.55;11.65;;;18.70;99.90;;;;;;5092790;28;20114;-83
2023/07/23 13:09:32;;;;;;;15.48;11.93;;;18.60;99.90;;;;;;5092852;28;20570;-84
2023/07/23 13:12:18;;;;;;;15.70;11.30;;;18.70;99.90;;;;;;5078769;28;20055;-82
2023/07/23 13:15:05;;;;;;;15.90;10.38;;;18.70;99.90;;;;;;5077710;28;20443;-83
2023/07/23 13:17:51;;;;;;;14.05;10.65;;;18.90;99.90;;;;;;5079178;28;20121;-82
2023/07/23 13:20:37;;;;;;;17.33;10.27;;;19.10;99.90;;;;;;5075840;28;20404;-83
2023/07/23 13:23:23;;;;;;;11.60;9.60;;;19.20;99.90;;;;;;5074771;28;20054;-83
2023/07/23 13:26:10;;;;;;;11.43;8.80;;;19.30;99.90;;;;;;5075027;28;20058;-82
2023/07/23 13:28:57;;;;;;;12.02;9.35;;;19.30;99.90;;;;;;5094368;28;20044;-82
2023/07/23 13:31:43;;;;;;;12.10;8.80;;;19.20;99.90;;;;;;5092227;28;20043;-83
2023/07/23 13:34:30;;;;;;;13.18;10.02;;;19.10;99.90;;;;;;5092262;28;20135;-82
2023/07/23 13:37:16;;;;;;;14.77;8.88;;;19.00;99.90;;;;;;5078743;28;20048;-83
2023/07/23 13:40:03;;;;;;;15.07;8.63;;;18.90;99.90;;;;;;5091823;28;20040;-82
2023/07/23 13:42:49;;;;;;;12.38;9.18;;;18.80;99.90;;;;;;5093691;28;20054;-82
2023/07/23 13:45:35;;;;;;;13.57;8.65;;;18.60;99.90;;;;;;5093418;28;20514;-81
2023/07/23 13:48:21;;;;;;;14.50;9.75;;;18.60;99.90;;;;;;5093614;28;20269;-83
2023/07/23 13:51:07;;;;;;;14.45;8.25;;;18.60;99.90;;;;;;5060327;28;20040;-82
2023/07/23 13:53:53;;;;;;;11.35;8.02;;;18.60;99.90;;;;;;5078346;28;20048;-82
2023/07/23 13:56:39;;;;;;;12.18;7.25;;;18.60;99.90;;;;;;5092585;28;20476;-83
2023/07/23 13:59:31;;;;;;;10.07;5.95;;;18.60;99.90;;;;;;5093455;28;20048;-83
2023/07/23 14:02:18;;;;;;;15.50;5.60;;;18.70;99.90;;;;;;5091839;28;20056;-83
2023/07/23 14:05:04;;;;;;;11.57;5.75;;;18.60;99.90;;;;;;5074046;28;20051;-80
2023/07/23 14:07:51;;;;;;;13.50;7.90;;;18.60;99.90;;;;;;5060241;28;20396;-81
2023/07/23 14:10:37;;;;;;;13.48;7.57;;;18.60;99.90;;;;;;5091503;28;20112;-82
2023/07/23 14:13:23;;;;;;;14.48;7.90;;;18.60;99.90;;;;;;5072589;28;20066;-81